Puget — AEQW — position and weather

sailwx.info

Track history (hours):
 
Tides and Currents Weather Stations Pressure Air Temp Water Temp Dewpoint Dewpoint Depression Visibility Wind Speed Wind Dir Waves Ship Positions

Puget

Last reported at 2018-Jan-18 00:05 UTC. Time now 2018-Jan-18 10:23 UTC.
Position N 48°24' W 122°30'.

Length 20 m; draft 0.2 m.

Type: Ship. MMSI: 369970510.

Date/timePositionNaut miles runAvg speedWind from/ knotsBaromVisibWave heightAir tempDewpointWater temp
2018-Jan-18 00:05N 48°24' W 122°30'0 0.2
2018-Jan-17 23:52N 48°24' W 122°30'  
2018-Jan-10 23:39N 47°40' W 122°24'0 0.2
2018-Jan-10 23:30N 47°40' W 122°24'0 0.6
2018-Jan-10 23:00N 47°40' W 122°24'0 0.0
2018-Jan-10 22:30N 47°40' W 122°24'2 4.0
2018-Jan-10 22:00N 47°39' W 122°26'5 9.7
2018-Jan-10 21:30N 47°34' W 122°25'2 3.4
2018-Jan-10 21:00N 47°35' W 122°24'3 5.5
2018-Jan-10 20:30N 47°34' W 122°21'0 0.3
2018-Jan-10 20:00N 47°34' W 122°21'0 0.0
2018-Jan-10 19:30N 47°34' W 122°21'0 0.0
2018-Jan-10 19:00N 47°34' W 122°21'1 1.6
2018-Jan-10 18:30N 47°35' W 122°22'2 3.5
2018-Jan-10 17:57N 47°37' W 122°21'0 0.0
2018-Jan-10 17:30N 47°37' W 122°21'0 0.8
2018-Jan-10 17:00N 47°37' W 122°21'4 7.9
2018-Jan-10 16:30N 47°39' W 122°26'2 3.7
2018-Jan-10 16:00N 47°40' W 122°24'0 0.0
2018-Jan-10 15:30N 47°40' W 122°24'0 0.0
2018-Jan-10 15:00N 47°40' W 122°24'0 0.0
2018-Jan-09 00:41N 47°40' W 122°24'0 0.3
2018-Jan-09 00:30N 47°40' W 122°24'0 0.0
2018-Jan-09 00:00N 47°40' W 122°24'0 0.1
2018-Jan-08 23:30N 47°40' W 122°24'0 0.6
2018-Jan-08 23:00N 47°40' W 122°24'2 3.3
2018-Jan-08 22:30N 47°40' W 122°27'5 9.9
2018-Jan-08 22:00N 47°35' W 122°28'3 6.8
2018-Jan-08 21:30N 47°35' W 122°33'4 7.7
2018-Jan-08 21:00N 47°39' W 122°36'0 1.0
2018-Jan-08 20:30N 47°39' W 122°37'2 4.0
2018-Jan-08 20:00N 47°41' W 122°35'0 0.6
2018-Jan-08 19:14N 47°41' W 122°34'0 0.5
2018-Jan-08 18:49N 47°41' W 122°34'0 0.5
2018-Jan-08 18:26N 47°41' W 122°34'0 0.4
2018-Jan-08 17:58N 47°41' W 122°34'1 1.2
2018-Jan-08 17:29N 47°41' W 122°34'2 4.0
2018-Jan-08 17:00N 47°43' W 122°33'4 8.5
2018-Jan-08 16:30N 47°42' W 122°27'3 6.3
2018-Jan-08 16:00N 47°40' W 122°24'0 0.1
2018-Jan-08 15:30N 47°40' W 122°24'  
Track history (hours):
 
Tides and Currents Weather Stations Pressure Air Temp Water Temp Dewpoint Dewpoint Depression Visibility Wind Speed Wind Dir Waves Ship Positions

Puget

Last reported at 2018-Jan-18 00:05 UTC. Time now 2018-Jan-18 10:23 UTC.
Position N 48°24' W 122°30'.

Length 20 m; draft 0.2 m.

Type: Ship. MMSI: 369970510.

Date/timePositionNaut miles runAvg speedWind from/ knotsBaromVisibWave heightAir tempDewpointWater temp
2018-Jan-18 00:05N 48°24' W 122°30'0 0.2
2018-Jan-17 23:52N 48°24' W 122°30'  
2018-Jan-10 23:39N 47°40' W 122°24'0 0.2
2018-Jan-10 23:30N 47°40' W 122°24'0 0.6
2018-Jan-10 23:00N 47°40' W 122°24'0 0.0
2018-Jan-10 22:30N 47°40' W 122°24'2 4.0
2018-Jan-10 22:00N 47°39' W 122°26'5 9.7
2018-Jan-10 21:30N 47°34' W 122°25'2 3.4
2018-Jan-10 21:00N 47°35' W 122°24'3 5.5
2018-Jan-10 20:30N 47°34' W 122°21'0 0.3
2018-Jan-10 20:00N 47°34' W 122°21'0 0.0
2018-Jan-10 19:30N 47°34' W 122°21'0 0.0
2018-Jan-10 19:00N 47°34' W 122°21'1 1.6
2018-Jan-10 18:30N 47°35' W 122°22'2 3.5
2018-Jan-10 17:57N 47°37' W 122°21'0 0.0
2018-Jan-10 17:30N 47°37' W 122°21'0 0.8
2018-Jan-10 17:00N 47°37' W 122°21'4 7.9
2018-Jan-10 16:30N 47°39' W 122°26'2 3.7
2018-Jan-10 16:00N 47°40' W 122°24'0 0.0
2018-Jan-10 15:30N 47°40' W 122°24'0 0.0
2018-Jan-10 15:00N 47°40' W 122°24'0 0.0
2018-Jan-09 00:41N 47°40' W 122°24'0 0.3
2018-Jan-09 00:30N 47°40' W 122°24'0 0.0
2018-Jan-09 00:00N 47°40' W 122°24'0 0.1
2018-Jan-08 23:30N 47°40' W 122°24'0 0.6
2018-Jan-08 23:00N 47°40' W 122°24'2 3.3
2018-Jan-08 22:30N 47°40' W 122°27'5 9.9
2018-Jan-08 22:00N 47°35' W 122°28'3 6.8
2018-Jan-08 21:30N 47°35' W 122°33'4 7.7
2018-Jan-08 21:00N 47°39' W 122°36'0 1.0
2018-Jan-08 20:30N 47°39' W 122°37'2 4.0
2018-Jan-08 20:00N 47°41' W 122°35'0 0.6
2018-Jan-08 19:14N 47°41' W 122°34'0 0.5
2018-Jan-08 18:49N 47°41' W 122°34'0 0.5
2018-Jan-08 18:26N 47°41' W 122°34'0 0.4
2018-Jan-08 17:58N 47°41' W 122°34'1 1.2
2018-Jan-08 17:29N 47°41' W 122°34'2 4.0
2018-Jan-08 17:00N 47°43' W 122°33'4 8.5
2018-Jan-08 16:30N 47°42' W 122°27'3 6.3
2018-Jan-08 16:00N 47°40' W 122°24'0 0.1
2018-Jan-08 15:30N 47°40' W 122°24'  

Dump ship's entire track history